createdAt,value
2022-11-13T00:02:54.067Z,26.30
2022-11-13T00:05:41.791Z,27.63
2022-11-13T00:08:29.043Z,27.60
2022-11-13T00:11:19.836Z,27.33
2022-11-13T00:14:07.196Z,27.88
2022-11-13T00:16:54.467Z,27.70
2022-11-13T00:19:43.138Z,26.15
2022-11-13T00:22:30.671Z,27.02
2022-11-13T00:25:17.807Z,26.27
2022-11-13T00:28:05.383Z,27.20
2022-11-13T00:30:52.351Z,27.67
2022-11-13T00:34:13.958Z,24.98
2022-11-13T00:36:48.539Z,25.92
2022-11-13T00:39:36.078Z,27.20
2022-11-13T00:42:23.136Z,26.15
2022-11-13T00:45:11.201Z,26.42
2022-11-13T00:47:58.518Z,28.10
2022-11-13T00:50:46.973Z,27.30
2022-11-13T00:53:35.278Z,29.65
2022-11-13T00:56:22.761Z,24.75
2022-11-13T00:59:10.264Z,26.75
2022-11-13T01:01:57.474Z,25.73
2022-11-13T01:04:45.027Z,25.13
2022-11-13T01:07:32.693Z,25.73
2022-11-13T01:10:21.291Z,26.05
2022-11-13T01:13:09.151Z,25.55
2022-11-13T01:15:56.080Z,25.60
2022-11-13T01:18:44.776Z,25.63
2022-11-13T01:26:27.694Z,27.83
2022-11-13T01:29:14.804Z,24.08
2022-11-13T01:32:02.387Z,24.83
2022-11-13T01:34:49.582Z,25.63
2022-11-13T01:37:37.069Z,26.40
2022-11-13T01:40:23.895Z,26.75
2022-11-13T01:43:26.158Z,26.30
2022-11-13T01:46:27.918Z,27.38
2022-11-13T01:49:28.372Z,26.23
2022-11-13T01:52:21.213Z,26.20
2022-11-13T01:55:17.103Z,25.77
2022-11-13T01:58:09.755Z,26.63
2022-11-13T02:00:58.744Z,25.85
2022-11-13T02:03:45.944Z,25.83
2022-11-13T02:06:41.471Z,25.42
2022-11-13T02:09:34.707Z,26.42
2022-11-13T02:12:29.529Z,25.45
2022-11-13T02:15:19.333Z,26.10
2022-11-13T02:18:09.150Z,25.92
2022-11-13T02:21:11.125Z,26.10
2022-11-13T02:24:15.029Z,25.67
2022-11-13T02:27:06.986Z,26.33
2022-11-13T02:29:54.737Z,27.35
2022-11-13T02:32:45.248Z,26.58
2022-11-13T02:35:38.597Z,26.05
2022-11-13T02:38:26.573Z,26.25
2022-11-13T02:41:15.593Z,26.48
2022-11-13T02:44:02.533Z,28.17
2022-11-13T02:46:49.894Z,25.15
2022-11-13T02:49:37.055Z,25.33
2022-11-13T02:52:24.800Z,25.02
2022-11-13T02:55:12.127Z,25.63
2022-11-13T02:58:01.064Z,23.23
2022-11-13T03:00:48.484Z,24.33
2022-11-13T03:06:43.190Z,25.10
2022-11-13T03:09:30.659Z,23.95
2022-11-13T03:12:17.700Z,24.60
2022-11-13T03:15:08.964Z,25.70
2022-11-13T03:17:56.417Z,23.58
2022-11-13T03:20:45.533Z,24.00
2022-11-13T03:23:32.533Z,23.15
2022-11-13T03:26:20.035Z,23.52
2022-11-13T03:29:06.912Z,24.00
2022-11-13T03:31:55.669Z,22.83
2022-11-13T03:34:43.547Z,24.13
2022-11-13T03:37:31.397Z,22.92
2022-11-13T03:40:19.019Z,23.83
2022-11-13T03:43:06.010Z,23.00
2022-11-13T03:45:53.315Z,21.50
2022-11-13T03:48:42.443Z,22.60
2022-11-13T03:51:29.695Z,22.30
2022-11-13T03:54:17.153Z,22.08
2022-11-13T03:57:04.501Z,22.55
2022-11-13T04:04:43.194Z,20.90
2022-11-13T04:07:30.567Z,19.67
2022-11-13T04:10:17.894Z,20.48
2022-11-13T04:13:05.337Z,20.08
2022-11-13T04:15:52.121Z,21.88
2022-11-13T04:18:39.721Z,22.17
2022-11-13T04:21:28.534Z,21.63
2022-11-13T04:24:15.916Z,20.73
2022-11-13T04:27:02.807Z,21.45
2022-11-13T04:29:50.316Z,21.02
2022-11-13T04:32:37.305Z,22.25
2022-11-13T04:35:24.595Z,21.33
2022-11-13T04:38:13.453Z,21.77
2022-11-13T04:41:18.472Z,20.63
2022-11-13T04:44:05.946Z,21.67
2022-11-13T04:46:53.122Z,20.08
2022-11-13T04:49:40.100Z,22.67
2022-11-13T04:52:28.622Z,21.70
2022-11-13T04:55:16.848Z,20.13
2022-11-13T04:58:04.124Z,21.40
2022-11-13T05:00:51.380Z,21.98
2022-11-13T05:03:39.270Z,20.50
2022-11-13T05:06:26.407Z,20.30
2022-11-13T05:09:14.150Z,20.38
2022-11-13T05:12:03.041Z,18.90
2022-11-13T05:14:50.674Z,19.58
2022-11-13T05:17:38.019Z,20.35
2022-11-13T05:20:25.446Z,20.40
2022-11-13T05:23:12.899Z,20.20
2022-11-13T05:26:04.849Z,20.15
2022-11-13T05:28:53.893Z,20.30
2022-11-13T05:31:41.606Z,19.45
2022-11-13T05:34:28.784Z,20.38
2022-11-13T05:37:16.700Z,21.35
2022-11-13T05:40:03.635Z,20.95
2022-11-13T05:42:51.072Z,21.95
2022-11-13T05:45:39.267Z,20.00
2022-11-13T05:48:27.081Z,21.20
2022-11-13T05:51:19.087Z,20.23
2022-11-13T05:54:07.226Z,21.00
2022-11-13T05:56:54.249Z,20.77
2022-11-13T05:59:41.741Z,19.25
2022-11-13T06:02:30.412Z,21.60
2022-11-13T06:05:17.873Z,20.98
2022-11-13T06:08:04.896Z,22.27
2022-11-13T06:10:52.357Z,21.25
2022-11-13T06:13:40.363Z,20.13
2022-11-13T06:21:22.117Z,19.65
2022-11-13T06:24:13.126Z,19.75
2022-11-13T06:27:00.251Z,20.00
2022-11-13T06:29:47.951Z,20.35
2022-11-13T06:32:34.751Z,18.23
2022-11-13T06:35:22.303Z,18.63
2022-11-13T06:38:10.726Z,18.08
2022-11-13T06:40:58.572Z,16.08
2022-11-13T06:43:47.464Z,18.17
2022-11-13T06:46:34.869Z,17.77
2022-11-13T06:49:21.883Z,17.95
2022-11-13T06:52:09.362Z,16.70
2022-11-13T06:54:57.644Z,16.02
2022-11-13T06:57:45.312Z,17.05
2022-11-13T07:00:36.682Z,14.88
2022-11-13T07:03:28.023Z,15.85
2022-11-13T07:06:18.335Z,16.70
2022-11-13T07:09:05.530Z,16.83
2022-11-13T07:11:54.008Z,17.50
2022-11-13T07:19:32.461Z,19.17
2022-11-13T07:22:19.951Z,15.80
2022-11-13T07:25:08.266Z,15.50
2022-11-13T07:27:57.393Z,14.75
2022-11-13T07:30:44.852Z,14.35
2022-11-13T07:33:32.433Z,14.70
2022-11-13T07:36:20.047Z,14.50
2022-11-13T07:39:07.580Z,14.60
2022-11-13T07:41:54.397Z,14.05
2022-11-13T07:44:58.627Z,14.90
2022-11-13T07:47:45.719Z,14.80
2022-11-13T07:50:38.949Z,13.30
2022-11-13T07:53:26.249Z,13.00
2022-11-13T07:56:16.578Z,11.93
2022-11-13T07:59:06.428Z,10.70
2022-11-13T08:01:55.012Z,11.45
2022-11-13T08:04:42.131Z,11.60
2022-11-13T08:07:29.814Z,12.65
2022-11-13T08:10:18.508Z,10.32
2022-11-13T08:13:10.755Z,9.75
2022-11-13T08:16:01.249Z,8.85
2022-11-13T08:18:49.921Z,8.85
2022-11-13T08:21:37.235Z,8.57
2022-11-13T08:24:24.529Z,8.15
2022-11-13T08:27:11.351Z,8.82
2022-11-13T08:29:58.808Z,9.07
2022-11-13T08:32:46.016Z,9.20
2022-11-13T08:35:34.869Z,8.20
2022-11-13T08:38:22.342Z,9.50
2022-11-13T08:41:10.186Z,8.38
2022-11-13T08:48:48.587Z,8.65
2022-11-13T08:51:36.762Z,8.77
2022-11-13T08:54:25.050Z,9.07
2022-11-13T08:57:12.106Z,8.50
2022-11-13T08:59:59.447Z,9.25
2022-11-13T09:02:46.743Z,8.95
2022-11-13T09:05:33.949Z,10.00
2022-11-13T09:08:22.419Z,9.25
2022-11-13T09:11:12.792Z,8.75
2022-11-13T09:14:00.097Z,9.80
2022-11-13T09:16:47.510Z,8.77
2022-11-13T09:19:35.266Z,9.52
2022-11-13T09:22:23.071Z,8.85
2022-11-13T09:25:12.340Z,9.23
2022-11-13T09:28:02.646Z,11.10
2022-11-13T09:30:49.668Z,9.50
2022-11-13T09:33:37.689Z,9.68
2022-11-13T09:36:24.644Z,9.77
2022-11-13T09:39:12.265Z,9.55
2022-11-13T09:46:56.455Z,10.55
2022-11-13T09:54:37.147Z,10.88
2022-11-13T09:57:34.504Z,11.13
2022-11-13T10:00:23.586Z,10.32
2022-11-13T10:03:54.667Z,10.30
2022-11-13T10:07:01.051Z,11.05
2022-11-13T10:14:47.644Z,10.75
2022-11-13T10:17:40.580Z,10.82
2022-11-13T10:20:35.920Z,9.00
2022-11-13T10:23:30.842Z,9.32
2022-11-13T10:26:21.509Z,11.43
2022-11-13T10:29:14.079Z,9.35
2022-11-13T10:32:17.488Z,9.65
2022-11-13T10:35:29.343Z,12.35
2022-11-13T10:38:31.517Z,9.65
2022-11-13T10:41:21.613Z,9.07
2022-11-13T10:48:59.250Z,9.20
2022-11-13T10:51:55.353Z,9.70
2022-11-13T10:54:43.668Z,8.85
2022-11-13T10:57:34.711Z,9.05
2022-11-13T11:00:34.272Z,9.52
2022-11-13T11:03:24.301Z,10.27
2022-11-13T11:06:11.880Z,10.55
2022-11-13T11:09:09.281Z,10.27
2022-11-13T11:12:19.120Z,10.30
2022-11-13T11:15:22.271Z,16.77
2022-11-13T11:18:25.523Z,11.45
2022-11-13T11:21:20.594Z,10.50
2022-11-13T11:24:15.482Z,9.77
2022-11-13T11:27:14.468Z,10.73
2022-11-13T11:30:06.863Z,10.27
2022-11-13T11:33:06.187Z,9.70
2022-11-13T11:36:03.519Z,9.55
2022-11-13T11:39:01.409Z,10.68
2022-11-13T11:42:01.379Z,10.50
2022-11-13T11:45:11.176Z,11.07
2022-11-13T11:48:01.891Z,10.18
2022-11-13T11:51:02.468Z,11.20
2022-11-13T11:54:20.701Z,11.10
2022-11-13T11:57:37.458Z,12.38
2022-11-13T12:00:29.020Z,11.82
2022-11-13T12:03:59.820Z,12.30
2022-11-13T12:07:01.596Z,12.23
2022-11-13T12:10:04.102Z,11.13
2022-11-13T12:13:10.471Z,11.52
2022-11-13T12:16:09.662Z,11.70
2022-11-13T12:19:05.570Z,14.75
2022-11-13T12:22:07.166Z,13.65
2022-11-13T12:25:18.917Z,13.80
2022-11-13T12:28:19.697Z,13.13
2022-11-13T12:31:21.868Z,11.93
2022-11-13T12:34:25.907Z,11.50
2022-11-13T12:37:17.578Z,12.38
2022-11-13T12:40:17.073Z,12.02
2022-11-13T12:43:39.733Z,11.35
2022-11-13T12:46:38.785Z,11.95
2022-11-13T12:49:33.614Z,12.30
2022-11-13T12:52:24.555Z,12.52
2022-11-13T12:55:29.897Z,12.30
2022-11-13T12:58:26.086Z,12.40
2022-11-13T13:01:21.456Z,12.18
2022-11-13T13:04:44.155Z,11.43
2022-11-13T13:12:39.984Z,17.73
2022-11-13T13:15:36.333Z,18.45
2022-11-13T13:18:30.978Z,13.63
2022-11-13T13:21:22.075Z,13.57
2022-11-13T13:29:17.723Z,56.13
2022-11-13T13:32:20.604Z,31.80
2022-11-13T13:36:46.689Z,20.88
2022-11-13T13:39:52.506Z,13.45
2022-11-13T13:43:00.883Z,11.60
2022-11-13T13:46:03.095Z,13.88
2022-11-13T13:48:56.192Z,16.25
2022-11-13T13:53:22.689Z,16.02
2022-11-13T14:35:03.135Z,14.68
2022-11-13T14:37:53.066Z,14.13
2022-11-13T14:40:40.770Z,14.77
2022-11-13T14:43:32.120Z,15.02
2022-11-13T14:46:30.933Z,15.00
2022-11-13T14:49:30.111Z,13.55
2022-11-13T14:52:29.622Z,14.52
2022-11-13T14:55:26.227Z,14.50
2022-11-13T14:58:15.388Z,15.57
2022-11-13T15:01:17.014Z,17.45
2022-11-13T15:04:05.204Z,16.95
2022-11-13T15:06:55.853Z,17.98
2022-11-13T15:09:44.824Z,18.55
2022-11-13T15:12:31.985Z,18.85
2022-11-13T15:15:22.052Z,18.08
2022-11-13T15:18:17.392Z,17.92
2022-11-13T15:21:05.338Z,20.63
2022-11-13T15:23:52.257Z,19.58
2022-11-13T15:26:41.987Z,19.95
2022-11-13T15:29:29.413Z,19.52
2022-11-13T15:32:17.530Z,20.33
2022-11-13T15:35:05.167Z,19.63
2022-11-13T15:37:52.807Z,22.25
2022-11-13T15:40:40.517Z,24.08
2022-11-13T15:43:29.845Z,24.80
2022-11-13T15:46:20.501Z,26.13
2022-11-13T15:49:07.921Z,24.92
2022-11-13T15:51:55.099Z,24.05
2022-11-13T15:54:42.747Z,24.67
2022-11-13T15:57:32.000Z,25.63
2022-11-13T16:00:25.072Z,25.52
2022-11-13T16:03:12.743Z,22.52
2022-11-13T16:06:01.113Z,19.95
2022-11-13T16:08:49.234Z,20.33
2022-11-13T16:11:37.875Z,20.05
2022-11-13T16:14:25.553Z,20.40
2022-11-13T16:17:20.103Z,19.88
2022-11-13T16:25:33.512Z,26.13
2022-11-13T16:28:20.895Z,24.88
2022-11-13T16:31:08.645Z,21.88
2022-11-13T16:33:57.378Z,21.05
2022-11-13T16:36:44.895Z,17.88
2022-11-13T16:39:32.411Z,15.63
2022-11-13T16:42:20.121Z,14.60
2022-11-13T16:45:09.051Z,16.40
2022-11-13T16:47:57.293Z,16.25
2022-11-13T16:50:45.903Z,16.30
2022-11-13T16:53:33.222Z,15.23
2022-11-13T16:56:28.100Z,16.98
2022-11-13T16:59:15.842Z,17.80
2022-11-13T17:02:03.220Z,17.70
2022-11-13T17:04:50.701Z,17.27
2022-11-13T17:07:39.107Z,17.40
2022-11-13T17:10:31.736Z,19.33
2022-11-13T17:13:19.897Z,18.30
2022-11-13T17:16:07.855Z,20.70
2022-11-13T17:18:55.904Z,20.88
2022-11-13T17:21:44.555Z,22.60
2022-11-13T17:24:33.135Z,24.10
2022-11-13T17:27:20.367Z,22.83
2022-11-13T17:30:10.095Z,23.23
2022-11-13T17:32:57.712Z,20.48
2022-11-13T17:35:46.455Z,18.95
2022-11-13T17:38:34.323Z,18.13
2022-11-13T17:41:23.184Z,18.17
2022-11-13T17:44:10.936Z,17.70
2022-11-13T17:47:04.910Z,22.92
2022-11-13T17:49:52.965Z,19.15
2022-11-13T17:52:39.963Z,22.63
2022-11-13T17:55:27.692Z,17.65
2022-11-13T17:58:16.049Z,20.25
2022-11-13T18:01:09.718Z,19.45
2022-11-13T18:03:57.633Z,18.00
2022-11-13T18:11:36.353Z,21.23
2022-11-13T18:14:24.947Z,21.67
2022-11-13T18:17:12.344Z,20.55
2022-11-13T18:20:02.021Z,17.10
2022-11-13T18:22:50.325Z,16.60
2022-11-13T18:25:39.884Z,17.70
2022-11-13T18:28:27.400Z,17.17
2022-11-13T18:31:19.874Z,16.83
2022-11-13T18:34:09.995Z,15.68
2022-11-13T18:36:58.435Z,15.52
2022-11-13T18:39:45.590Z,15.25
2022-11-13T18:42:32.766Z,15.40
2022-11-13T18:45:20.180Z,16.98
2022-11-13T18:48:08.915Z,16.08
2022-11-13T18:50:57.218Z,16.05
2022-11-13T18:53:46.088Z,17.17
2022-11-13T18:56:34.296Z,14.98
2022-11-13T18:59:21.293Z,16.55
2022-11-13T19:02:10.274Z,17.65
2022-11-13T19:04:58.838Z,16.77
2022-11-13T19:07:46.182Z,16.33
2022-11-13T19:10:35.300Z,21.90
2022-11-13T19:13:22.967Z,16.80
2022-11-13T19:16:13.002Z,17.50
2022-11-13T19:19:03.305Z,19.63
2022-11-13T19:21:52.300Z,19.15
2022-11-13T19:24:39.757Z,17.98
2022-11-13T19:27:27.278Z,19.38
2022-11-13T19:30:14.866Z,18.92
2022-11-13T19:33:01.719Z,16.48
2022-11-13T19:35:49.631Z,15.70
2022-11-13T19:38:39.298Z,16.17
2022-11-13T19:41:29.650Z,15.27
2022-11-13T19:44:16.377Z,22.05
2022-11-13T19:47:03.945Z,21.20
2022-11-13T19:54:43.095Z,20.38
2022-11-13T19:59:14.124Z,24.63
2022-11-13T20:02:01.847Z,15.85
2022-11-13T20:04:49.157Z,16.02
2022-11-13T20:07:37.285Z,13.75
2022-11-13T20:15:17.004Z,19.15
2022-11-13T20:18:04.976Z,17.25
2022-11-13T20:20:54.845Z,15.32
2022-11-13T20:23:42.687Z,13.90
2022-11-13T20:26:30.037Z,15.07
2022-11-13T20:29:17.225Z,14.30
2022-11-13T20:32:06.276Z,13.75
2022-11-13T20:34:53.286Z,14.57
2022-11-13T20:37:41.100Z,16.15
2022-11-13T20:45:22.761Z,14.20
2022-11-13T20:48:11.792Z,17.98
2022-11-13T20:51:07.554Z,15.98
2022-11-13T20:53:55.853Z,15.32
2022-11-13T20:56:43.135Z,14.57
2022-11-13T20:59:30.197Z,13.68
2022-11-13T21:02:17.729Z,12.93
2022-11-13T21:05:07.532Z,13.23
2022-11-13T21:07:55.104Z,12.60
2022-11-13T21:10:42.008Z,13.30
2022-11-13T21:13:29.956Z,12.63
2022-11-13T21:16:18.620Z,13.10
2022-11-13T21:19:06.181Z,11.95
2022-11-13T21:26:44.929Z,12.32
2022-11-13T21:34:22.745Z,12.55
2022-11-13T21:37:11.036Z,12.93
2022-11-13T21:39:58.428Z,13.68
2022-11-13T21:42:46.522Z,14.02
2022-11-13T21:45:34.808Z,14.68
2022-11-13T21:48:22.087Z,14.35
2022-11-13T21:51:10.524Z,13.15
2022-11-13T21:58:50.209Z,12.52
2022-11-13T22:01:38.838Z,11.68
2022-11-13T22:04:27.855Z,11.63
2022-11-13T22:07:15.854Z,11.85
2022-11-13T22:10:08.169Z,12.07
2022-11-13T22:12:55.763Z,11.65
2022-11-13T22:15:44.662Z,11.48
2022-11-13T22:18:31.932Z,12.07
2022-11-13T22:21:19.615Z,12.50
2022-11-13T22:24:07.403Z,11.88
2022-11-13T22:26:54.578Z,11.43
2022-11-13T22:29:41.655Z,10.93
2022-11-13T22:32:31.465Z,11.00
2022-11-13T22:35:18.724Z,10.73
2022-11-13T22:38:06.270Z,10.57
2022-11-13T22:40:53.304Z,11.10
2022-11-13T22:43:42.792Z,11.10
2022-11-13T22:51:24.830Z,10.98
2022-11-13T22:55:53.328Z,12.43
2022-11-13T22:58:40.945Z,12.35
2022-11-13T23:01:30.306Z,12.98
2022-11-13T23:04:18.025Z,14.63
2022-11-13T23:07:06.723Z,14.00
2022-11-13T23:09:54.483Z,13.68
2022-11-13T23:12:41.738Z,14.38
2022-11-13T23:15:28.828Z,13.40
2022-11-13T23:18:16.091Z,13.43
2022-11-13T23:21:03.343Z,12.63
2022-11-13T23:23:52.063Z,13.75
2022-11-13T23:26:39.541Z,13.93
2022-11-13T23:29:26.474Z,14.05
2022-11-13T23:32:13.942Z,13.80
2022-11-13T23:35:01.306Z,14.77
2022-11-13T23:37:48.815Z,14.90
2022-11-13T23:45:29.411Z,14.35
2022-11-13T23:48:16.306Z,14.27
2022-11-13T23:51:04.334Z,14.73
2022-11-13T23:53:51.360Z,15.00
2022-11-13T23:56:39.200Z,14.57
